Latest Weather Observations for Mt Wellington

IDT60901

Issued at 3:11 pm EDT Sunday 1 February 2015 (issued every 10 minutes, with the page automatically refreshed every 10 minutes)

About weather observations | Map of Hobart area stations | Latest observations for Hobart area | Other Formats
Station Details ID: 094087 Name: MOUNT WELLINGTON Lat: -42.90 Lon: 147.24 Height: 1260.47 m
Data from the previous 72 hours. | See also: Recent months at Mt Wellington
Date/Time
EDT
Tmp

°C
App
Tmp
°C
Dew
Point
°C
Rel
Hum
%
Delta-T

°C
Wind Press
QNH
hPa
Press
MSL
hPa
Rain
since
9 am
mm
Dir
 
Spd
km/h
Gust
km/h
Spd
kts
Gust
kts
01/03:00pm 5.3 -2.5 5.0 98 0.1 SW 35 43 19 23 - - 0.0
01/02:30pm 5.3 -3.2 5.0 98 0.1 SW 39 46 21 25 - - 0.0
01/02:00pm 5.1 -2.3 4.8 98 0.1 SW 33 43 18 23 - - 0.0
01/01:30pm 5.4 -3.1 5.1 98 0.1 SW 39 48 21 26 - - 0.0
01/01:00pm 5.3 -3.2 5.0 98 0.1 SW 39 44 21 24 - - 0.0
01/12:30pm 4.9 -2.4 4.6 98 0.1 SW 32 41 17 22 - - 0.0
01/12:00pm 4.8 -4.6 4.5 98 0.1 SW 43 52 23 28 - - 0.0
01/11:30am 4.7 -3.6 4.4 98 0.1 SW 37 46 20 25 - - 0.0
01/11:00am 5.0 -1.5 4.7 98 0.1 SW 28 39 15 21 - - 0.0
01/10:30am 4.4 -3.0 4.1 98 0.1 SW 32 41 17 22 - - 0.0
01/10:00am 4.0 -3.1 3.7 98 0.1 SW 30 41 16 22 - - 0.0
01/09:30am 3.9 -3.8 3.6 98 0.1 SW 33 43 18 23 - - 0.0
01/09:00am 3.8 -5.0 3.5 98 0.1 SW 39 50 21 27 - - 11.6
01/08:30am 3.9 -5.3 3.6 98 0.1 SW 41 50 22 27 - - 11.4
01/08:00am 3.5 -6.3 3.2 98 0.1 SW 44 52 24 28 - - 11.4
01/07:30am 3.4 -7.2 3.1 98 0.1 SW 48 59 26 32 - - 11.4
01/07:00am 3.0 -7.3 2.7 98 0.1 SW 46 57 25 31 - - 11.2
01/06:30am 3.1 -5.8 2.8 98 0.1 SW 39 50 21 27 - - 11.0
01/06:00am 3.2 -6.7 2.9 98 0.1 SW 44 57 24 31 - - 11.0
01/05:30am 3.2 -5.7 2.9 98 0.1 SW 39 50 21 27 - - 10.8
01/05:00am 3.4 -6.4 3.1 98 0.1 SW 44 54 24 29 - - 10.8
01/04:30am 3.5 -6.3 3.2 98 0.1 SW 44 54 24 29 - - 10.8
01/04:00am 3.4 -5.5 3.1 98 0.1 SW 39 48 21 26 - - 10.6
01/03:30am 3.7 -4.0 3.4 98 0.1 SW 33 44 18 24 - - 10.6
01/03:00am 4.0 -3.1 3.7 98 0.1 SW 30 41 16 22 - - 10.4
01/02:30am 4.0 -4.4 3.7 98 0.1 SW 37 48 20 26 - - 10.4
01/02:00am 4.2 -5.3 3.9 98 0.1 SW 43 50 23 27 - - 10.2
01/01:30am 4.1 -7.1 3.8 98 0.1 SW 52 61 28 33 - - 10.2
01/01:00am 4.5 -7.0 4.2 98 0.1 SW 54 61 29 33 - - 10.0
01/12:30am 4.5 -6.7 4.2 98 0.1 SW 52 63 28 34 - - 9.8
01/12:00am 4.8 -6.3 4.5 98 0.1 SW 52 59 28 32 - - 9.6
 
Date/Time
EDT
Tmp

°C
App
Tmp
°C
Dew
Point
°C
Rel
Hum
%
Delta-T

°C
Wind Press
QNH
hPa
Press
MSL
hPa
Rain
since
9 am
mm
Dir
 
Spd
km/h
Gust
km/h
Spd
kts
Gust
kts
31/11:30pm 4.6 -6.5 4.3 98 0.1 SSW 52 61 28 33 - - 9.4
31/11:00pm 5.0 -6.1 4.7 98 0.1 SW 52 61 28 33 - - 9.2
31/10:30pm 5.1 -5.6 4.8 98 0.1 SSW 50 57 27 31 - - 9.0
31/10:00pm 5.1 -5.2 4.8 98 0.1 SSW 48 56 26 30 - - 8.8
31/09:30pm 5.3 -5.3 5.0 98 0.1 SSW 50 57 27 31 - - 8.4
31/09:00pm 5.4 -6.5 5.1 98 0.1 SSW 57 63 31 34 - - 8.2
31/08:30pm 5.5 -7.2 5.2 98 0.1 SSW 61 70 33 38 - - 8.0
31/08:00pm 5.8 -6.0 5.5 98 0.1 SSW 57 67 31 36 - - 7.8
31/07:30pm 5.7 -5.6 5.4 98 0.1 SW 54 65 29 35 - - 7.6
31/07:00pm 5.9 -5.4 5.6 98 0.1 SW 54 65 29 35 - - 7.4
31/06:30pm 6.2 -4.6 5.9 98 0.1 SSW 52 63 28 34 - - 7.2
31/06:00pm 6.5 -3.9 6.2 98 0.1 SSW 50 61 27 33 - - 7.0
31/05:30pm 6.5 -4.3 6.2 98 0.1 SSW 52 61 28 33 - - 6.6
31/05:00pm 6.5 -4.6 6.2 98 0.1 SSW 54 61 29 33 - - 6.4
31/04:30pm 6.6 -4.1 6.3 98 0.1 SSW 52 59 28 32 - - 6.0
31/04:00pm 6.6 -2.4 6.3 98 0.1 SSW 43 52 23 28 - - 5.8
31/03:30pm 6.8 -2.4 6.5 98 0.1 SSW 44 54 24 29 - - 5.6
31/03:00pm 6.8 -3.1 6.5 98 0.1 SSW 48 57 26 31 - - 5.2
31/02:30pm 6.9 -3.4 6.6 98 0.1 SSW 50 59 27 32 - - 5.0
31/02:00pm 6.6 -4.1 6.3 98 0.1 SSW 52 61 28 33 - - 4.8
31/01:30pm 6.5 -4.6 6.2 98 0.1 SSW 54 63 29 34 - - 4.4
31/01:00pm 6.6 -4.1 6.3 98 0.1 SSW 52 61 28 33 - - 4.0
31/12:30pm 6.3 -4.5 6.0 98 0.1 SSW 52 65 28 35 - - 3.8
31/12:00pm 6.3 -4.5 6.0 98 0.1 SSW 52 63 28 34 - - 3.4
31/11:30am 6.5 -4.6 6.2 98 0.1 SSW 54 63 29 34 - - 2.8
31/11:00am 6.5 -5.0 6.2 98 0.1 SSW 56 67 30 36 - - 2.4
31/10:30am 6.2 -4.6 5.9 98 0.1 SSW 52 61 28 33 - - 2.2
31/10:00am 6.2 -3.5 5.9 98 0.1 SSW 46 57 25 31 - - 1.8
31/09:30am 6.2 -4.2 5.9 98 0.1 SSW 50 61 27 33 - - 1.0
31/09:00am 6.1 -4.4 5.8 98 0.1 SSW 50 59 27 32 - - 21.2
31/08:30am 6.0 -5.6 5.7 98 0.1 SSW 56 69 30 37 - - 20.4
31/08:00am 6.0 -6.2 5.7 98 0.1 SSW 59 72 32 39 - - 20.0
31/07:30am 5.8 -5.1 5.5 98 0.1 SSW 52 67 28 36 - - 19.4
31/07:00am 5.8 -6.8 5.5 98 0.1 SSW 61 72 33 39 - - 18.8
31/06:30am 5.7 -6.5 5.4 98 0.1 SSW 59 74 32 40 - - 17.8
31/06:00am 5.7 -6.5 5.4 98 0.1 S 59 72 32 39 - - 17.2
31/05:48am 5.6 -6.3 5.3 98 0.1 SSW 57 76 31 41 - - 16.8
31/05:30am 5.6 -7.1 5.3 98 0.1 SSW 61 76 33 41 - - 16.4
31/05:00am 5.5 -6.4 5.2 98 0.1 SSW 57 72 31 39 - - 15.8
31/04:30am 5.5 -6.8 5.2 98 0.1 SSW 59 72 32 39 - - 15.0
31/04:00am 5.5 -7.6 5.2 98 0.1 SSW 63 76 34 41 - - 14.2
31/03:30am 5.3 -7.4 5.0 98 0.1 SSW 61 74 33 40 - - 13.6
31/03:00am 5.2 -6.8 4.9 98 0.1 SSW 57 69 31 37 - - 13.0
31/02:30am 5.1 -8.0 4.8 98 0.1 SSW 63 76 34 41 - - 12.4
31/02:00am 5.0 -8.5 4.7 98 0.1 SSW 65 76 35 41 - - 11.8
31/01:30am 4.8 -8.8 4.5 98 0.1 SSW 65 74 35 40 - - 11.4
31/01:00am 4.5 -8.7 4.2 98 0.1 SSW 63 70 34 38 - - 11.0
31/12:30am 4.3 -9.7 4.0 98 0.1 SSW 67 78 36 42 - - 10.6
31/12:00am 4.2 -9.9 3.9 98 0.1 SSW 67 76 36 41 - - 10.2
 
Date/Time
EDT
Tmp

°C
App
Tmp
°C
Dew
Point
°C
Rel
Hum
%
Delta-T

°C
Wind Press
QNH
hPa
Press
MSL
hPa
Rain
since
9 am
mm
Dir
 
Spd
km/h
Gust
km/h
Spd
kts
Gust
kts
30/11:30pm 4.3 -9.4 4.0 98 0.1 SSW 65 72 35 39 - - 9.8
30/11:00pm 4.1 -9.6 3.8 98 0.1 SSW 65 72 35 39 - - 9.6
30/10:30pm 4.1 -9.6 3.8 98 0.1 SSW 65 76 35 41 - - 9.4
30/10:01pm 3.7 -10.5 3.4 98 0.1 SSW 67 87 36 47 - - 9.2
30/10:00pm 4.0 -10.5 3.7 98 0.1 SSW 69 87 37 47 - - 9.2
30/09:30pm 3.6 -11.1 3.3 98 0.1 SSW 70 83 38 45 - - 9.0
30/09:00pm 3.7 -10.8 3.4 98 0.1 SSW 69 78 37 42 - - 8.8
30/08:30pm 3.8 -10.3 3.5 98 0.1 SSW 67 76 36 41 - - 8.8
30/08:00pm 3.7 -9.3 3.4 98 0.1 SSW 61 76 33 41 - - 8.6
30/07:30pm 4.0 -8.6 3.7 98 0.1 SSW 59 70 32 38 - - 8.6
30/07:19pm 4.3 -7.3 4.0 98 0.1 SSW 54 74 29 40 - - 8.6
30/07:00pm 4.4 -7.2 4.1 98 0.1 SSW 54 65 29 35 - - 8.6
30/06:30pm 4.0 -6.9 3.7 98 0.1 S 50 67 27 36 - - 8.6
30/06:08pm 4.4 -6.4 4.1 98 0.1 S 50 69 27 37 - - 8.6
30/06:00pm 4.0 -9.0 3.7 98 0.1 S 61 74 33 40 - - 8.6
30/05:42pm 4.4 -7.5 4.1 98 0.1 S 56 76 30 41 - - 8.4
30/05:30pm 3.9 -9.1 3.6 98 0.1 S 61 72 33 39 - - 8.4
30/05:00pm 4.3 -7.7 4.0 98 0.1 S 56 69 30 37 - - 8.4
30/04:31pm 4.5 -5.9 4.2 98 0.1 S 48 69 26 37 - - 8.4
30/04:30pm 4.4 -6.0 4.1 98 0.1 S 48 63 26 34 - - 8.4
30/04:00pm 4.8 -7.1 4.5 98 0.1 S 56 70 30 38 - - 8.2
30/03:38pm 4.3 -7.7 4.0 98 0.1 S 56 74 30 40 - - 8.2
30/03:30pm 4.3 -8.2 4.0 98 0.1 S 59 74 32 40 - - 8.2
30/03:00pm 4.5 -7.6 4.2 98 0.1 S 57 74 31 40 - - 8.2
30/02:31pm 5.0 -5.3 4.7 98 0.1 S 48 67 26 36 - - 8.0
30/02:30pm 5.0 -5.7 4.7 98 0.1 S 50 67 27 36 - - 8.0
30/02:00pm 4.6 -6.9 4.3 98 0.1 S 54 70 29 38 - - 8.0
30/01:33pm 5.1 -5.6 4.8 98 0.1 S 50 70 27 38 - - 7.4
30/01:30pm 5.1 -5.9 4.8 98 0.1 S 52 70 28 38 - - 7.4
30/01:00pm 5.1 -4.4 4.8 98 0.1 S 44 59 24 32 - - 6.8
30/12:33pm 4.7 -5.7 4.4 98 0.1 S 48 67 26 36 - - 6.2
30/12:30pm 5.0 -5.3 4.7 98 0.1 S 48 63 26 34 - - 6.2
30/12:20pm 5.2 -5.8 4.9 98 0.1 S 52 70 28 38 - - 6.2
30/12:00pm 4.8 -6.3 4.5 98 0.1 S 52 69 28 37 - - 6.0
30/11:44am 5.1 -5.9 4.8 98 0.1 S 52 70 28 38 - - 5.0
30/11:30am 4.8 -6.7 4.5 98 0.1 S 54 69 29 37 - - 4.8
30/11:00am 4.9 -6.9 4.6 98 0.1 S 56 67 30 36 - - 4.4
30/10:30am 4.7 -6.4 4.4 98 0.1 S 52 70 28 38 - - 3.6
30/10:18am 4.5 -7.4 4.2 98 0.1 S 56 74 30 40 - - 3.2
30/10:00am 4.9 -7.1 4.6 98 0.1 S 57 70 31 38 - - 2.4
30/09:48am 4.5 -6.7 4.2 98 0.1 S 52 72 28 39 - - 2.0
30/09:30am 4.5 -7.0 4.2 98 0.1 S 54 67 29 36 - - 1.0
30/09:13am 4.6 -6.5 4.3 98 0.1 S 52 74 28 40 - - 0.6
30/09:00am 4.3 -7.3 4.0 98 0.1 S 54 70 29 38 - - 16.8
30/08:30am 4.2 -7.4 3.9 98 0.1 S 54 67 29 36 - - 16.2
30/08:14am 4.2 -6.6 3.9 98 0.1 S 50 69 27 37 - - 16.0
30/08:00am 4.3 -6.1 4.0 98 0.1 S 48 67 26 36 - - 15.8
30/07:51am 4.5 -5.1 4.2 98 0.1 S 44 65 24 35 - - 15.6
30/07:30am 4.5 -5.1 4.2 98 0.1 S 44 61 24 33 - - 15.0
30/07:03am 4.4 -5.1 4.1 98 0.1 S 43 63 23 34 - - 13.6
30/07:00am 4.3 -5.2 4.0 98 0.1 S 43 56 23 30 - - 13.4
30/06:37am 4.1 -6.0 3.8 98 0.1 SSE 46 67 25 36 - - 12.6
30/06:30am 4.4 -5.6 4.1 98 0.1 S 46 61 25 33 - - 12.0
30/06:07am 4.3 -6.5 4.0 98 0.1 S 50 69 27 37 - - 11.0
30/06:00am 4.1 -7.1 3.8 98 0.1 S 52 69 28 37 - - 10.8
30/05:43am 4.2 -6.3 3.9 98 0.1 SSE 48 67 26 36 - - 10.6
30/05:30am 4.0 -7.3 3.7 98 0.1 S 52 65 28 35 - - 10.2
30/05:16am 4.0 -7.3 3.7 98 0.1 S 52 72 28 39 - - 10.0
30/05:00am 4.2 -6.3 3.9 98 0.1 S 48 65 26 35 - - 9.2
30/04:47am 4.1 -7.5 3.8 98 0.1 SSE 54 74 29 40 - - 8.6
30/04:30am 3.4 -8.9 3.1 98 0.1 S 57 70 31 38 - - 8.4
30/04:03am 3.9 -5.9 3.6 98 0.1 SSE 44 63 24 34 - - 8.0
30/04:00am 3.8 -6.0 3.5 98 0.1 SSE 44 61 24 33 - - 7.8
30/03:30am 3.8 -6.7 3.5 98 0.1 S 48 69 26 37 - - 7.4
30/03:04am 3.5 -7.1 3.2 98 0.1 SSE 48 69 26 37 - - 7.0
30/03:00am 3.4 -8.0 3.1 98 0.1 SSE 52 69 28 37 - - 7.0
30/02:30am 3.0 -7.3 2.7 98 0.1 SSE 46 57 25 31 - - 6.8
30/02:00am 2.8 -7.0 2.5 98 0.1 SSE 43 56 23 30 - - 6.6
30/01:30am 2.6 -7.2 2.3 98 0.1 SSE 43 61 23 33 - - 6.4
30/01:27am 2.7 -7.1 2.4 98 0.1 SSE 43 61 23 33 - - 6.4
30/01:00am 2.8 -6.6 2.5 98 0.1 SSE 41 57 22 31 - - 6.2
30/12:45am 2.7 -6.7 2.4 98 0.1 SSE 41 61 22 33 - - 6.0
30/12:30am 2.5 -7.5 2.2 98 0.1 SSE 44 57 24 31 - - 6.0
30/12:06am 2.9 -6.1 2.6 98 0.1 SSE 39 57 21 31 - - 5.8
30/12:00am 3.1 -5.1 2.8 98 0.1 SSE 35 50 19 27 - - 5.6
 
Date/Time
EDT
Tmp

°C
App
Tmp
°C
Dew
Point
°C
Rel
Hum
%
Delta-T

°C
Wind Press
QNH
hPa
Press
MSL
hPa
Rain
since
9 am
mm
Dir
 
Spd
km/h
Gust
km/h
Spd
kts
Gust
kts
29/11:31pm 2.8 -6.2 2.5 98 0.1 SSE 39 59 21 32 - - 4.4
29/11:30pm 2.8 -6.6 2.5 98 0.1 SSE 41 59 22 32 - - 4.4
29/11:26pm 2.8 -6.6 2.5 98 0.1 SSE 41 61 22 33 - - 4.4
29/11:00pm 2.6 -7.8 2.3 98 0.1 SSE 46 63 25 34 - - 3.8
29/10:44pm 2.9 -6.5 2.6 98 0.1 SSE 41 65 22 35 - - 3.8
29/10:30pm 2.6 -7.8 2.3 98 0.1 SSE 46 59 25 32 - - 3.2
29/10:00pm 3.0 -6.7 2.7 98 0.1 SSE 43 54 23 29 - - 2.8
29/09:30pm 3.0 -6.0 2.7 98 0.1 SSE 39 56 21 30 - - 2.6
29/09:00pm 2.8 -6.6 2.5 98 0.1 SSE 41 54 22 29 - - 2.2
29/08:30pm 2.8 -6.6 2.5 98 0.1 SSE 41 54 22 29 - - 1.2
29/08:00pm 2.3 -8.1 2.0 98 0.1 S 46 59 25 32 - - 1.2
29/07:30pm 2.4 -7.0 2.1 98 0.1 S 41 54 22 29 - - 1.0
29/07:00pm 3.0 -6.3 2.7 98 0.1 S 41 54 22 29 - - 0.8
29/06:30pm 2.8 -5.8 2.5 98 0.1 S 37 48 20 26 - - 0.8
29/06:00pm 3.0 -5.2 2.7 98 0.1 S 35 50 19 27 - - 0.8
29/05:30pm 3.3 -3.5 3.0 98 0.1 SSE 28 44 15 24 - - 0.6
29/05:00pm 3.8 -3.7 3.5 98 0.1 S 32 44 17 24 - - 0.6
29/04:30pm 3.3 -4.3 3.0 98 0.1 S 32 43 17 23 - - 0.2
29/04:00pm 4.0 -1.9 3.7 98 0.1 S 24 37 13 20 - - 0.2
29/03:30pm 3.8 -2.2 3.5 98 0.1 S 24 39 13 21 - - 0.2

Latest Capital City Observations: Canberra | Sydney | Melbourne | Brisbane | Adelaide | Perth | Hobart | Darwin

Other Formats:

Comma delimited format used in spreadsheet applications
http://www.bom.gov.au/fwo/IDT60901/IDT60901.95979.axf

JavaScript Object Notation format (JSON) in row-major order
http://www.bom.gov.au/fwo/IDT60901/IDT60901.95979.json